Time;durP1;ratioP1;P1;durP2;ratioP2;P2;SDS_P1;SDS_P2;PMS_P1;PMS_P2;Temp;Humidity;BMP_temperature;BMP_pressure;BME280_temperature;BME280_humidity;BME280_pressure;Samples;Min_cycle;Max_cycle;Signal;HPM_P1;HPM_P2
2021/01/23 00:00:41;;;;;;;1.92;1.15;;;8.20;87.80;;;;;;5017010;28;20030;-50
2021/01/23 00:03:07;;;;;;;1.73;1.15;;;8.20;87.90;;;;;;5016520;28;20406;-50
2021/01/23 00:05:33;;;;;;;1.20;1.10;;;8.20;87.90;;;;;;5021457;28;20068;-50
2021/01/23 00:08:01;;;;;;;2.00;0.98;;;8.20;87.90;;;;;;5025541;28;20120;-49
2021/01/23 00:10:29;;;;;;;2.17;1.42;;;8.20;87.90;;;;;;5017305;28;20109;-50
2021/01/23 00:12:55;;;;;;;1.40;1.13;;;8.10;87.80;;;;;;5015982;28;20026;-50
2021/01/23 00:15:21;;;;;;;0.93;0.80;;;8.10;87.80;;;;;;5016427;28;20032;-50
2021/01/23 00:17:46;;;;;;;1.30;0.80;;;8.10;87.90;;;;;;5015800;28;20117;-50
2021/01/23 00:20:12;;;;;;;1.20;0.63;;;8.10;87.80;;;;;;5016967;28;20092;-50
2021/01/23 00:22:38;;;;;;;0.52;0.52;;;8.10;87.90;;;;;;5021023;28;20201;-50
2021/01/23 00:25:05;;;;;;;2.45;0.60;;;8.10;87.90;;;;;;5035119;28;20034;-50
2021/01/23 00:27:30;;;;;;;0.40;0.40;;;8.10;88.00;;;;;;5035594;28;20021;-49
2021/01/23 00:29:56;;;;;;;0.30;0.30;;;8.10;88.00;;;;;;5035494;28;20401;-50
2021/01/23 00:32:22;;;;;;;0.40;0.40;;;8.10;87.90;;;;;;5033720;28;20455;-50
2021/01/23 00:34:47;;;;;;;0.40;0.40;;;8.10;88.00;;;;;;5034784;28;20022;-50
2021/01/23 00:37:13;;;;;;;0.35;0.35;;;8.10;88.00;;;;;;5035447;28;20025;-50
2021/01/23 00:39:38;;;;;;;0.43;0.43;;;8.10;88.70;;;;;;5035470;28;20481;-50
2021/01/23 00:42:04;;;;;;;0.25;0.25;;;8.10;88.00;;;;;;5033718;28;20033;-50
2021/01/23 00:44:30;;;;;;;0.30;0.30;;;8.10;88.00;;;;;;5034231;28;20108;-50
2021/01/23 00:46:55;;;;;;;0.40;0.40;;;8.10;88.00;;;;;;5035148;28;20037;-50
2021/01/23 00:49:23;;;;;;;0.30;0.30;;;8.10;88.00;;;;;;5035167;28;20029;-49
2021/01/23 00:51:49;;;;;;;0.40;0.40;;;8.00;87.90;;;;;;5033495;28;20029;-50
2021/01/23 00:54:15;;;;;;;0.60;0.60;;;8.00;87.90;;;;;;5035381;28;20041;-50
2021/01/23 00:56:40;;;;;;;0.30;0.30;;;8.00;88.00;;;;;;5028621;28;20507;-49
2021/01/23 00:59:07;;;;;;;0.40;0.40;;;8.00;88.00;;;;;;5015194;28;20419;-50
2021/01/23 01:01:32;;;;;;;1.95;0.40;;;8.00;88.00;;;;;;5024433;28;20037;-50
2021/01/23 01:03:58;;;;;;;0.30;0.30;;;8.00;87.90;;;;;;5033273;28;20471;-50
2021/01/23 01:06:24;;;;;;;0.38;0.38;;;8.00;88.00;;;;;;5022759;28;20053;-50
2021/01/23 01:08:49;;;;;;;0.30;0.30;;;8.00;88.00;;;;;;5015152;28;20030;-50
2021/01/23 01:11:15;;;;;;;0.30;0.30;;;8.00;88.00;;;;;;5015110;28;20026;-50
2021/01/23 01:13:40;;;;;;;0.30;0.30;;;8.00;88.00;;;;;;5015635;28;20026;-50
2021/01/23 01:16:06;;;;;;;0.30;0.30;;;8.00;88.00;;;;;;5016600;28;20456;-49
2021/01/23 01:18:32;;;;;;;0.30;0.30;;;7.90;87.90;;;;;;5034609;28;20030;-50
2021/01/23 01:20:57;;;;;;;0.30;0.30;;;7.90;88.00;;;;;;5034294;28;20033;-50
2021/01/23 01:23:23;;;;;;;0.30;0.30;;;7.90;87.90;;;;;;5034307;28;20022;-50
2021/01/23 01:25:48;;;;;;;0.30;0.30;;;7.90;87.90;;;;;;5032879;28;20037;-50
2021/01/23 01:28:14;;;;;;;5.13;0.35;;;7.90;88.00;;;;;;5034453;28;20212;-50
2021/01/23 01:30:39;;;;;;;1.13;0.40;;;7.90;88.00;;;;;;5034403;28;20022;-50
2021/01/23 01:33:05;;;;;;;0.55;0.30;;;7.90;87.90;;;;;;5034124;28;20028;-50
2021/01/23 01:35:31;;;;;;;0.30;0.30;;;7.90;88.00;;;;;;5032653;28;20063;-50
2021/01/23 01:37:57;;;;;;;0.30;0.30;;;7.90;88.00;;;;;;5034320;28;20110;-50
2021/01/23 01:40:23;;;;;;;0.30;0.30;;;7.90;88.10;;;;;;5033930;28;20427;-50
2021/01/23 01:42:48;;;;;;;0.40;0.35;;;7.90;88.10;;;;;;5019475;28;20034;-50
2021/01/23 01:45:16;;;;;;;1.25;0.30;;;7.90;88.00;;;;;;5014173;28;20418;-50
2021/01/23 01:47:42;;;;;;;0.40;0.40;;;7.80;88.00;;;;;;5014190;28;20026;-50
2021/01/23 01:50:08;;;;;;;0.30;0.30;;;7.90;88.10;;;;;;5014781;28;20026;-50
2021/01/23 01:52:34;;;;;;;0.30;0.30;;;7.90;88.10;;;;;;5014009;28;20025;-49
2021/01/23 01:55:00;;;;;;;10.77;0.40;;;7.90;88.10;;;;;;5014097;28;20030;-50
2021/01/23 01:57:26;;;;;;;0.30;0.30;;;7.90;88.00;;;;;;5015043;28;20080;-50
2021/01/23 01:59:51;;;;;;;0.30;0.30;;;7.80;88.00;;;;;;5022904;28;20044;-50
2021/01/23 02:02:37;;;;;;;0.20;0.20;;;7.80;88.00;;;;;;5045228;28;20470;-50
2021/01/23 02:05:14;;;;;;;0.30;0.30;;;7.80;88.00;;;;;;5071506;28;20029;-50
2021/01/23 02:07:58;;;;;;;0.30;0.30;;;7.80;88.00;;;;;;5021739;28;20083;-50
2021/01/23 02:10:48;;;;;;;0.20;0.20;;;7.80;88.00;;;;;;5014617;28;20100;-50
2021/01/23 02:13:28;;;;;;;0.30;0.30;;;7.80;88.00;;;;;;5013972;28;20084;-50
2021/01/23 02:16:11;;;;;;;0.20;0.20;;;7.80;88.00;;;;;;5013928;28;20028;-49
2021/01/23 02:19:10;;;;;;;0.20;0.20;;;7.80;88.70;;;;;;5027404;28;20502;-49
2021/01/23 02:21:44;;;;;;;0.63;0.30;;;7.80;88.00;;;;;;5032910;28;20478;-50
2021/01/23 02:24:12;;;;;;;0.20;0.20;;;7.80;88.00;;;;;;5033054;28;20048;-49
2021/01/23 02:27:09;;;;;;;0.20;0.20;;;7.70;88.00;;;;;;5033508;28;20029;-49
2021/01/23 02:29:56;;;;;;;0.22;0.22;;;7.70;87.90;;;;;;5031830;28;20095;-50
2021/01/23 02:32:23;;;;;;;0.20;0.20;;;7.70;88.70;;;;;;5021238;28;20077;-50
2021/01/23 02:34:49;;;;;;;0.30;0.30;;;7.70;87.90;;;;;;5013586;28;20053;-50
2021/01/23 02:37:16;;;;;;;0.20;0.20;;;7.70;87.90;;;;;;5013238;28;20038;-50
2021/01/23 02:39:42;;;;;;;0.30;0.30;;;7.70;87.90;;;;;;5014805;28;20463;-50
2021/01/23 02:42:08;;;;;;;0.22;0.22;;;7.70;88.00;;;;;;5013498;28;20056;-50
2021/01/23 02:44:34;;;;;;;0.30;0.30;;;7.70;87.90;;;;;;5013576;28;20026;-50
2021/01/23 02:46:59;;;;;;;0.30;0.30;;;7.70;87.90;;;;;;5013623;28;20518;-50
2021/01/23 02:49:26;;;;;;;0.35;0.35;;;7.70;87.90;;;;;;5014536;28;20022;-50
2021/01/23 02:51:51;;;;;;;0.30;0.30;;;7.70;87.90;;;;;;5013468;28;20116;-49
2021/01/23 02:54:25;;;;;;;0.40;0.40;;;7.70;88.00;;;;;;5013522;28;20113;-50
2021/01/23 02:56:54;;;;;;;0.30;0.30;;;7.70;87.90;;;;;;5021299;28;20105;-50
2021/01/23 02:59:22;;;;;;;0.20;0.20;;;7.70;88.70;;;;;;5037093;28;20033;-50
2021/01/23 03:01:50;;;;;;;0.30;0.30;;;7.70;87.90;;;;;;5035416;28;20037;-50
2021/01/23 03:04:19;;;;;;;0.30;0.30;;;7.70;87.90;;;;;;5037160;28;20455;-50
2021/01/23 03:06:45;;;;;;;0.22;0.22;;;7.70;88.00;;;;;;5023471;28;20033;-50
2021/01/23 03:09:25;;;;;;;0.30;0.30;;;7.70;87.90;;;;;;5017411;28;20216;-50
2021/01/23 03:11:52;;;;;;;0.30;0.30;;;7.70;87.90;;;;;;5018609;28;20026;-50
2021/01/23 03:14:19;;;;;;;0.20;0.20;;;7.70;87.90;;;;;;5017041;28;20041;-50
2021/01/23 03:16:52;;;;;;;0.30;0.30;;;7.60;87.80;;;;;;5016925;28;20104;-50
2021/01/23 03:19:19;;;;;;;0.40;0.40;;;7.60;87.90;;;;;;5017058;28;20519;-50
2021/01/23 03:21:47;;;;;;;0.30;0.30;;;7.70;87.90;;;;;;5018658;28;20041;-50
2021/01/23 03:24:13;;;;;;;0.20;0.20;;;7.60;87.90;;;;;;5017065;28;20030;-49
2021/01/23 03:26:39;;;;;;;0.30;0.30;;;7.60;87.90;;;;;;5025329;28;20053;-50
2021/01/23 03:29:05;;;;;;;0.20;0.20;;;7.60;87.90;;;;;;5035566;28;20415;-50
2021/01/23 03:31:31;;;;;;;0.68;0.30;;;7.70;87.90;;;;;;5033362;28;20022;-49
2021/01/23 03:33:57;;;;;;;0.52;0.50;;;7.70;87.90;;;;;;5015131;28;20029;-50
2021/01/23 03:36:24;;;;;;;0.45;0.45;;;7.60;87.90;;;;;;5029506;28;20025;-49
2021/01/23 03:38:50;;;;;;;0.40;0.40;;;7.60;87.90;;;;;;5036102;28;20064;-49
2021/01/23 03:41:16;;;;;;;0.60;0.60;;;7.60;87.90;;;;;;5035543;28;20493;-50
2021/01/23 03:43:42;;;;;;;0.32;0.32;;;7.60;87.90;;;;;;5022738;28;20038;-50
2021/01/23 03:46:07;;;;;;;0.43;0.43;;;7.60;87.90;;;;;;5016530;28;20037;-49
2021/01/23 03:48:33;;;;;;;0.63;0.40;;;7.60;87.90;;;;;;5016448;28;20419;-49
2021/01/23 03:50:59;;;;;;;0.45;0.45;;;7.60;87.80;;;;;;5016057;28;20034;-50
2021/01/23 03:53:24;;;;;;;0.30;0.30;;;7.60;87.90;;;;;;5017122;28;20026;-49
2021/01/23 03:55:50;;;;;;;0.85;0.40;;;7.60;87.80;;;;;;5029372;28;20387;-50
2021/01/23 03:58:19;;;;;;;0.30;0.30;;;7.60;87.80;;;;;;5036215;28;20029;-50
2021/01/23 04:00:45;;;;;;;1.02;0.45;;;7.60;87.80;;;;;;5036155;28;20087;-50
2021/01/23 04:03:11;;;;;;;0.30;0.30;;;7.60;87.80;;;;;;5035908;28;20055;-50
2021/01/23 04:05:37;;;;;;;0.30;0.30;;;7.60;87.90;;;;;;5028469;28;20036;-49
2021/01/23 04:08:03;;;;;;;0.40;0.40;;;7.60;87.80;;;;;;5015181;28;20111;-49
2021/01/23 04:10:29;;;;;;;0.45;0.45;;;7.60;87.80;;;;;;5016097;28;20463;-50
2021/01/23 04:12:55;;;;;;;0.45;0.45;;;7.60;87.80;;;;;;5016300;28;20390;-50
2021/01/23 04:15:22;;;;;;;0.30;0.30;;;7.60;87.80;;;;;;5016924;28;20522;-50
2021/01/23 04:17:47;;;;;;;0.32;0.32;;;7.60;87.80;;;;;;5015954;28;20473;-49
2021/01/23 04:20:13;;;;;;;0.40;0.40;;;7.60;87.80;;;;;;5015837;28;20042;-49
2021/01/23 04:22:39;;;;;;;0.50;0.50;;;7.60;87.80;;;;;;5016250;28;20355;-50
2021/01/23 04:25:05;;;;;;;0.30;0.30;;;7.60;87.80;;;;;;5016778;28;20025;-50
2021/01/23 04:27:32;;;;;;;0.30;0.30;;;7.60;87.80;;;;;;5015904;28;20447;-50
2021/01/23 04:29:57;;;;;;;2.05;0.57;;;7.60;87.70;;;;;;5019170;28;20025;-50
2021/01/23 04:32:23;;;;;;;0.50;0.50;;;7.60;87.70;;;;;;5035456;28;20477;-50
2021/01/23 04:34:49;;;;;;;0.60;0.60;;;7.60;87.70;;;;;;5035408;28;20485;-50
2021/01/23 04:37:14;;;;;;;0.63;0.63;;;7.60;87.70;;;;;;5033554;28;20080;-50
2021/01/23 04:39:40;;;;;;;0.47;0.47;;;7.60;87.70;;;;;;5035459;28;20037;-50
2021/01/23 04:42:09;;;;;;;0.38;0.38;;;7.60;87.70;;;;;;5035352;28;20362;-50
2021/01/23 04:44:36;;;;;;;0.30;0.30;;;7.70;87.70;;;;;;5035565;28;20347;-50
2021/01/23 04:47:02;;;;;;;0.30;0.30;;;7.70;87.70;;;;;;5033428;28;20025;-50
2021/01/23 04:49:32;;;;;;;0.30;0.30;;;7.60;87.70;;;;;;5035467;28;20057;-50
2021/01/23 04:52:04;;;;;;;0.40;0.40;;;7.60;87.60;;;;;;5035143;28;20030;-50
2021/01/23 04:54:31;;;;;;;0.30;0.30;;;7.60;87.60;;;;;;5035053;28;20088;-50
2021/01/23 04:56:57;;;;;;;0.40;0.40;;;7.60;87.60;;;;;;5033490;28;20148;-50
2021/01/23 04:59:22;;;;;;;0.40;0.40;;;7.60;87.60;;;;;;5035048;28;20096;-50
2021/01/23 05:02:21;;;;;;;0.40;0.40;;;7.60;87.60;;;;;;5034882;28;20477;-50
2021/01/23 05:04:55;;;;;;;0.40;0.40;;;7.60;87.60;;;;;;5052332;28;20032;-50
2021/01/23 05:07:24;;;;;;;0.50;0.50;;;7.60;87.50;;;;;;5051681;28;20090;-50
2021/01/23 05:09:51;;;;;;;1.45;0.73;;;7.60;87.60;;;;;;5032959;28;20040;-50
2021/01/23 05:12:40;;;;;;;0.60;0.60;;;7.70;87.60;;;;;;5046129;28;20055;-50
2021/01/23 05:15:09;;;;;;;0.50;0.50;;;7.60;87.50;;;;;;5032254;28;20040;-50
2021/01/23 05:17:51;;;;;;;0.40;0.40;;;7.60;87.50;;;;;;5032391;28;20068;-50
2021/01/23 05:20:43;;;;;;;0.80;0.80;;;7.60;87.50;;;;;;5032867;28;20049;-50
2021/01/23 05:23:24;;;;;;;0.50;0.50;;;7.70;87.60;;;;;;5038372;28;20037;-50
2021/01/23 05:25:54;;;;;;;0.80;0.80;;;7.60;87.50;;;;;;5048037;28;20029;-50
2021/01/23 05:28:35;;;;;;;1.15;0.90;;;7.60;88.30;;;;;;5050427;28;20104;-50
2021/01/23 05:31:03;;;;;;;1.10;0.98;;;7.60;87.50;;;;;;5051861;28;20061;-50
2021/01/23 05:33:29;;;;;;;1.00;0.70;;;7.60;87.50;;;;;;5051915;28;20029;-50
2021/01/23 05:36:10;;;;;;;0.68;0.68;;;7.60;87.50;;;;;;5051259;28;20458;-50
2021/01/23 05:38:40;;;;;;;0.93;0.80;;;7.60;87.50;;;;;;5040844;28;20086;-50
2021/01/23 05:41:09;;;;;;;1.85;0.93;;;7.60;87.40;;;;;;5028053;28;20120;-50
2021/01/23 05:43:49;;;;;;;1.83;1.13;;;7.60;87.40;;;;;;5021924;28;20351;-50
2021/01/23 05:46:27;;;;;;;0.98;0.80;;;7.60;87.40;;;;;;5024516;28;20104;-50
2021/01/23 05:48:54;;;;;;;0.80;0.70;;;7.60;87.40;;;;;;5022426;28;20045;-50
2021/01/23 05:51:21;;;;;;;1.65;0.63;;;7.70;87.50;;;;;;5016907;28;20034;-50
2021/01/23 05:53:47;;;;;;;0.57;0.40;;;7.60;87.40;;;;;;5031212;28;20120;-50
2021/01/23 05:56:13;;;;;;;2.40;0.65;;;7.60;87.40;;;;;;5022291;28;20068;-50
2021/01/23 05:58:41;;;;;;;0.60;0.60;;;7.60;87.40;;;;;;5014605;28;20038;-50
2021/01/23 06:01:14;;;;;;;0.47;0.40;;;7.60;87.40;;;;;;5015295;28;20037;-50
2021/01/23 06:03:43;;;;;;;2.08;0.60;;;7.60;87.40;;;;;;5014295;28;20026;-50
2021/01/23 06:06:09;;;;;;;0.73;0.73;;;7.60;87.40;;;;;;5023793;28;20402;-50
2021/01/23 06:08:46;;;;;;;0.55;0.50;;;7.60;87.40;;;;;;5027053;28;20414;-50
2021/01/23 06:11:20;;;;;;;0.63;0.40;;;7.60;87.40;;;;;;5018989;28;20354;-50
2021/01/23 06:13:55;;;;;;;0.40;0.40;;;7.70;87.50;;;;;;5031114;28;20332;-50
2021/01/23 06:16:44;;;;;;;0.47;0.47;;;7.60;87.40;;;;;;5025097;28;20108;-50
2021/01/23 06:19:15;;;;;;;0.40;0.40;;;7.60;87.40;;;;;;5032195;28;20029;-50
2021/01/23 06:21:44;;;;;;;0.47;0.47;;;7.60;87.40;;;;;;5031790;28;20037;-50
2021/01/23 06:24:18;;;;;;;0.40;0.40;;;7.60;87.40;;;;;;5032035;28;20025;-50
2021/01/23 06:26:52;;;;;;;0.60;0.55;;;7.60;87.40;;;;;;5033528;28;20041;-50
2021/01/23 06:29:31;;;;;;;0.40;0.40;;;7.60;87.40;;;;;;5016236;28;20328;-50
2021/01/23 06:31:56;;;;;;;0.40;0.40;;;7.60;87.40;;;;;;5015353;28;20053;-50
2021/01/23 06:34:27;;;;;;;0.60;0.60;;;7.60;87.40;;;;;;5022884;28;20490;-50
2021/01/23 06:37:30;;;;;;;0.38;0.38;;;7.60;87.40;;;;;;5027670;28;20449;-50
2021/01/23 06:39:56;;;;;;;0.40;0.40;;;7.60;87.30;;;;;;5027583;28;20066;-50
2021/01/23 06:42:22;;;;;;;0.40;0.40;;;7.60;87.30;;;;;;5019238;28;20403;-50
2021/01/23 06:44:48;;;;;;;1.13;0.63;;;7.60;87.30;;;;;;5025788;28;20459;-50
2021/01/23 06:47:14;;;;;;;0.55;0.55;;;7.60;87.20;;;;;;5019551;28;20081;-50
2021/01/23 06:49:43;;;;;;;0.60;0.52;;;7.60;87.20;;;;;;5024186;28;20112;-50
2021/01/23 06:52:09;;;;;;;0.80;0.80;;;7.60;87.20;;;;;;5032282;28;20025;-50
2021/01/23 06:54:36;;;;;;;0.82;0.73;;;7.60;87.20;;;;;;5027732;28;20029;-50
2021/01/23 06:57:04;;;;;;;1.67;1.08;;;7.60;87.20;;;;;;5028212;28;20030;-50
2021/01/23 06:59:31;;;;;;;0.70;0.70;;;7.60;87.20;;;;;;5016372;28;20436;-50
2021/01/23 07:02:10;;;;;;;1.30;0.80;;;7.60;87.20;;;;;;5025583;28;20525;-50
2021/01/23 07:04:47;;;;;;;3.80;0.85;;;7.60;87.50;;;;;;5030918;28;20080;-50
2021/01/23 07:07:13;;;;;;;0.90;0.80;;;7.60;87.20;;;;;;5014601;28;20040;-50
2021/01/23 07:09:49;;;;;;;0.73;0.73;;;7.60;87.20;;;;;;5013669;28;20105;-50
2021/01/23 07:12:35;;;;;;;0.63;0.63;;;7.60;87.20;;;;;;5014344;28;20054;-50
2021/01/23 07:15:05;;;;;;;1.48;0.82;;;7.60;87.20;;;;;;5013671;28;20057;-50
2021/01/23 07:17:38;;;;;;;1.42;1.02;;;7.60;87.20;;;;;;5013595;28;20041;-50
2021/01/23 07:20:12;;;;;;;0.98;0.80;;;7.60;87.10;;;;;;5021470;28;20048;-50
2021/01/23 07:22:39;;;;;;;1.30;0.80;;;7.60;87.20;;;;;;5015747;28;20026;-50
2021/01/23 07:25:07;;;;;;;0.50;0.50;;;7.60;87.10;;;;;;5024043;28;20038;-50
2021/01/23 07:27:37;;;;;;;4.57;0.85;;;7.60;87.10;;;;;;5026141;28;20037;-50
2021/01/23 07:30:12;;;;;;;0.50;0.50;;;7.60;87.10;;;;;;5024551;28;20072;-50
2021/01/23 07:32:39;;;;;;;0.52;0.52;;;7.60;87.10;;;;;;5026663;28;20080;-50
2021/01/23 07:35:06;;;;;;;0.68;0.68;;;7.60;87.10;;;;;;5022460;28;20037;-50
2021/01/23 07:37:56;;;;;;;0.65;0.65;;;7.60;87.10;;;;;;5017472;28;20076;-50
2021/01/23 07:40:27;;;;;;;1.17;1.05;;;7.60;87.10;;;;;;5024544;28;20030;-50
2021/01/23 07:42:56;;;;;;;0.70;0.70;;;7.60;87.10;;;;;;5023776;28;20083;-50
2021/01/23 07:45:22;;;;;;;1.97;1.20;;;7.60;87.00;;;;;;5035136;28;20490;-50
2021/01/23 07:47:55;;;;;;;4.10;1.67;;;7.60;87.00;;;;;;5034777;28;20026;-50
2021/01/23 07:50:21;;;;;;;1.00;0.90;;;7.60;87.00;;;;;;5035995;28;20447;-50
2021/01/23 07:52:47;;;;;;;1.02;0.88;;;7.60;87.00;;;;;;5036255;28;20029;-50
2021/01/23 07:55:13;;;;;;;1.40;1.13;;;7.60;87.00;;;;;;5035771;28;20106;-50
2021/01/23 07:57:39;;;;;;;3.83;1.48;;;7.60;87.00;;;;;;5034591;28;20029;-50
2021/01/23 08:00:06;;;;;;;2.42;1.55;;;7.60;87.00;;;;;;5036312;28;20041;-50
2021/01/23 08:02:50;;;;;;;3.90;1.30;;;7.60;87.00;;;;;;5036101;28;20439;-50
2021/01/23 08:05:15;;;;;;;3.40;1.92;;;7.60;86.90;;;;;;5033434;28;20029;-50
2021/01/23 08:07:42;;;;;;;1.33;1.10;;;7.60;86.90;;;;;;5016160;28;20502;-50
2021/01/23 08:10:08;;;;;;;1.00;1.00;;;7.60;86.90;;;;;;5034333;28;20370;-50
2021/01/23 08:12:35;;;;;;;1.80;1.20;;;7.60;86.80;;;;;;5035845;28;20418;-50
2021/01/23 08:15:02;;;;;;;1.35;0.90;;;7.60;86.90;;;;;;5035761;28;20029;-50
2021/01/23 08:17:47;;;;;;;1.30;1.20;;;7.60;86.80;;;;;;5033951;28;20083;-50
2021/01/23 08:20:17;;;;;;;1.20;1.10;;;7.60;86.80;;;;;;5034995;28;20409;-50
2021/01/23 08:23:12;;;;;;;1.10;1.02;;;7.70;86.90;;;;;;5020238;28;20105;-50
2021/01/23 08:25:55;;;;;;;2.03;1.02;;;7.60;86.80;;;;;;5015777;28;20036;-50
2021/01/23 08:28:32;;;;;;;2.33;1.65;;;7.70;86.80;;;;;;5013386;28;20382;-50
2021/01/23 08:31:15;;;;;;;2.05;1.30;;;7.70;86.80;;;;;;5025379;28;20068;-50
2021/01/23 08:33:46;;;;;;;1.67;1.35;;;7.70;86.80;;;;;;5033310;28;20057;-50
2021/01/23 08:36:11;;;;;;;2.05;1.40;;;7.70;86.70;;;;;;5034126;28;20466;-50
2021/01/23 08:38:37;;;;;;;1.80;1.38;;;7.70;86.70;;;;;;5034518;28;20037;-50
2021/01/23 08:41:04;;;;;;;2.63;1.88;;;7.70;86.60;;;;;;5021875;28;20049;-50
2021/01/23 08:43:29;;;;;;;2.63;1.65;;;7.70;86.60;;;;;;5014701;28;20029;-50
2021/01/23 08:45:56;;;;;;;1.70;1.48;;;7.70;86.60;;;;;;5022322;28;20370;-50
2021/01/23 08:48:21;;;;;;;1.77;1.25;;;7.70;86.60;;;;;;5034425;28;20028;-50
2021/01/23 08:50:47;;;;;;;1.52;1.42;;;7.70;86.60;;;;;;5033041;28;20029;-50
2021/01/23 08:53:13;;;;;;;2.53;2.10;;;7.70;86.50;;;;;;5034354;28;20099;-50
2021/01/23 08:55:39;;;;;;;2.40;1.98;;;7.80;86.60;;;;;;5034033;28;20124;-50
2021/01/23 08:58:05;;;;;;;2.42;1.80;;;7.70;86.50;;;;;;5034898;28;20109;-50
2021/01/23 09:00:30;;;;;;;1.80;1.60;;;7.80;86.60;;;;;;5033921;28;20041;-50
2021/01/23 09:02:58;;;;;;;3.40;2.10;;;7.70;86.50;;;;;;5025348;28;20371;-50
2021/01/23 09:05:24;;;;;;;2.67;2.28;;;7.80;86.50;;;;;;5034381;28;20451;-51
2021/01/23 09:07:49;;;;;;;1.90;1.80;;;7.70;86.40;;;;;;5034567;28;20060;-50
2021/01/23 09:10:15;;;;;;;2.80;2.33;;;7.80;86.40;;;;;;5034246;28;20073;-50
2021/01/23 09:12:41;;;;;;;4.38;2.63;;;7.80;86.50;;;;;;5028789;28;20033;-50
2021/01/23 09:15:07;;;;;;;3.17;2.78;;;7.80;86.50;;;;;;5034373;28;20499;-50
2021/01/23 09:17:33;;;;;;;4.78;3.00;;;7.80;86.50;;;;;;5034105;28;20026;-50
2021/01/23 09:20:00;;;;;;;5.65;2.95;;;7.80;86.40;;;;;;5034007;28;20055;-50
2021/01/23 09:22:25;;;;;;;2.10;1.67;;;7.80;86.40;;;;;;5031157;28;20036;-50
2021/01/23 09:24:51;;;;;;;3.58;2.42;;;7.80;86.40;;;;;;5014910;28;20026;-50
2021/01/23 09:27:17;;;;;;;1.20;1.10;;;7.80;86.30;;;;;;5014618;28;20448;-50
2021/01/23 09:29:42;;;;;;;6.95;2.85;;;7.80;86.20;;;;;;5014181;28;20041;-50
2021/01/23 09:32:08;;;;;;;5.00;3.35;;;7.80;86.10;;;;;;5014211;28;20026;-50
2021/01/23 09:34:35;;;;;;;3.97;2.60;;;7.80;86.20;;;;;;5014925;28;20026;-50
2021/01/23 09:37:04;;;;;;;2.90;1.85;;;7.90;86.10;;;;;;5014836;28;20022;-50
2021/01/23 09:39:31;;;;;;;4.25;2.78;;;7.90;86.10;;;;;;5031762;28;20033;-50
2021/01/23 09:41:59;;;;;;;4.43;2.65;;;7.90;86.00;;;;;;5034344;28;20033;-50
2021/01/23 09:44:25;;;;;;;3.50;2.40;;;7.90;86.00;;;;;;5032129;28;20109;-50
2021/01/23 09:46:52;;;;;;;3.00;2.65;;;7.90;85.90;;;;;;5034041;28;20109;-50
2021/01/23 09:49:18;;;;;;;2.67;1.88;;;7.90;85.90;;;;;;5033159;28;20406;-50
2021/01/23 09:51:43;;;;;;;3.72;2.47;;;7.90;85.90;;;;;;5033782;28;20449;-50
2021/01/23 09:54:09;;;;;;;2.30;1.27;;;7.90;85.90;;;;;;5020696;28;20049;-50
2021/01/23 09:56:35;;;;;;;3.30;2.53;;;7.90;85.90;;;;;;5014176;28;20029;-50
2021/01/23 09:59:00;;;;;;;3.28;2.53;;;7.90;85.90;;;;;;5014203;28;20038;-50
2021/01/23 10:01:26;;;;;;;6.63;2.88;;;8.00;85.90;;;;;;5014631;28;20034;-50
2021/01/23 10:03:52;;;;;;;4.20;2.72;;;8.00;85.80;;;;;;5014321;28;20021;-50
2021/01/23 10:06:17;;;;;;;4.28;2.65;;;8.00;85.70;;;;;;5025221;28;20034;-50
2021/01/23 10:08:43;;;;;;;5.20;3.28;;;8.00;85.70;;;;;;5034088;28;20026;-50
2021/01/23 10:11:09;;;;;;;3.20;2.28;;;8.00;85.70;;;;;;5033860;28;20445;-50
2021/01/23 10:13:34;;;;;;;4.50;2.47;;;8.00;85.70;;;;;;5016090;28;20467;-50
2021/01/23 10:16:00;;;;;;;2.95;2.08;;;8.00;85.70;;;;;;5014731;28;20497;-50
2021/01/23 10:18:26;;;;;;;2.20;1.52;;;8.00;85.70;;;;;;5014124;28;20065;-50
2021/01/23 10:20:52;;;;;;;4.43;2.30;;;8.00;85.70;;;;;;5013798;28;20076;-50
2021/01/23 10:23:18;;;;;;;3.85;2.33;;;8.00;85.70;;;;;;5013900;28;20045;-50
2021/01/23 10:25:43;;;;;;;6.13;3.58;;;8.00;85.60;;;;;;5013685;28;20033;-50
2021/01/23 10:28:09;;;;;;;5.57;3.03;;;8.00;85.60;;;;;;5030128;28;20037;-49
2021/01/23 10:30:35;;;;;;;3.95;3.03;;;8.00;85.60;;;;;;5033143;28;20473;-49
2021/01/23 10:33:00;;;;;;;13.30;4.75;;;8.00;85.40;;;;;;5031333;28;20379;-49
2021/01/23 10:35:26;;;;;;;6.68;3.95;;;7.90;85.30;;;;;;5013576;28;20034;-49
2021/01/23 10:37:51;;;;;;;4.55;3.35;;;7.80;85.00;;;;;;5015053;28;20315;-50
2021/01/23 10:40:17;;;;;;;6.85;3.15;;;7.70;84.80;;;;;;5013637;28;20030;-49
2021/01/23 10:42:43;;;;;;;4.68;3.22;;;7.70;84.70;;;;;;5013641;28;20022;-49
2021/01/23 10:45:09;;;;;;;6.97;3.97;;;7.60;84.40;;;;;;5013270;28;20021;-50
2021/01/23 10:47:36;;;;;;;5.82;3.70;;;7.60;84.50;;;;;;5014251;28;20022;-49
2021/01/23 10:50:04;;;;;;;5.15;3.45;;;7.60;84.50;;;;;;5013480;28;20037;-51
2021/01/23 10:52:29;;;;;;;7.10;4.05;;;7.60;84.50;;;;;;5013462;28;20068;-52
2021/01/23 10:54:55;;;;;;;7.63;4.60;;;7.60;84.30;;;;;;5013605;28;20042;-49
2021/01/23 10:57:21;;;;;;;6.25;3.67;;;7.50;84.10;;;;;;5013602;28;20101;-49
2021/01/23 10:59:46;;;;;;;7.35;3.72;;;7.50;84.10;;;;;;5019920;28;20465;-49
2021/01/23 11:02:12;;;;;;;8.93;4.63;;;7.50;84.00;;;;;;5015366;28;20038;-49
2021/01/23 11:04:38;;;;;;;6.55;3.83;;;7.50;83.90;;;;;;5033077;28;20061;-49
2021/01/23 11:07:03;;;;;;;7.60;3.97;;;7.50;84.00;;;;;;5015733;28;20348;-49
2021/01/23 11:09:29;;;;;;;5.97;3.72;;;7.50;84.60;;;;;;5022913;28;20356;-49
2021/01/23 11:11:55;;;;;;;7.75;3.85;;;7.50;83.60;;;;;;5033019;28;20117;-49
2021/01/23 11:14:22;;;;;;;6.00;3.88;;;7.50;83.50;;;;;;5032920;28;20028;-49
2021/01/23 11:16:51;;;;;;;6.80;3.53;;;7.50;83.40;;;;;;5032693;28;20371;-49
2021/01/23 11:19:16;;;;;;;8.43;3.95;;;7.40;83.10;;;;;;5035443;28;20463;-49
2021/01/23 11:21:43;;;;;;;7.47;3.63;;;7.40;83.20;;;;;;5037091;28;20081;-49
2021/01/23 11:24:09;;;;;;;19.13;4.38;;;7.40;83.10;;;;;;5036546;28;20095;-49
2021/01/23 11:26:35;;;;;;;7.40;3.95;;;7.40;83.00;;;;;;5036703;28;20488;-49
2021/01/23 11:29:01;;;;;;;6.90;3.88;;;7.40;83.40;;;;;;5017277;28;20030;-49
2021/01/23 11:31:27;;;;;;;14.15;5.18;;;7.40;82.90;;;;;;5017802;28;20088;-49
2021/01/23 11:33:52;;;;;;;3.28;2.30;;;7.40;82.80;;;;;;5017062;28;20058;-48
2021/01/23 11:36:19;;;;;;;10.50;5.47;;;7.40;82.60;;;;;;5016761;28;20028;-49
2021/01/23 11:38:45;;;;;;;7.07;3.83;;;7.40;82.30;;;;;;5016931;28;20045;-49
2021/01/23 11:41:11;;;;;;;8.38;5.20;;;7.40;82.40;;;;;;5018073;28;20038;-49
2021/01/23 11:43:37;;;;;;;7.10;4.28;;;7.40;82.10;;;;;;5015792;28;20451;-49
2021/01/23 11:46:03;;;;;;;6.82;4.30;;;7.40;82.00;;;;;;5016634;28;20041;-49
2021/01/23 11:48:30;;;;;;;9.45;3.65;;;7.40;82.00;;;;;;5016706;28;20028;-49
2021/01/23 11:50:56;;;;;;;6.50;3.85;;;7.40;82.00;;;;;;5017769;28;20033;-49
2021/01/23 11:53:22;;;;;;;9.73;4.47;;;7.40;81.90;;;;;;5016695;28;20037;-49
2021/01/23 11:55:49;;;;;;;6.28;4.18;;;7.40;81.90;;;;;;5024467;28;20029;-49
2021/01/23 11:58:15;;;;;;;14.43;5.18;;;7.30;81.60;;;;;;5036170;28;20025;-49
2021/01/23 12:00:41;;;;;;;14.07;4.45;;;7.40;81.80;;;;;;5034771;28;20037;-49
2021/01/23 12:03:06;;;;;;;6.68;4.47;;;7.30;81.60;;;;;;5036306;28;20025;-48
2021/01/23 12:05:33;;;;;;;7.00;4.03;;;7.30;81.60;;;;;;5031149;28;20057;-49
2021/01/23 12:07:59;;;;;;;8.02;4.63;;;7.30;81.30;;;;;;5016444;28;20065;-49
2021/01/23 12:10:25;;;;;;;6.88;3.95;;;7.30;81.20;;;;;;5016352;28;20026;-49
2021/01/23 12:12:51;;;;;;;7.68;4.07;;;7.30;80.90;;;;;;5017042;28;20037;-49
2021/01/23 12:15:17;;;;;;;9.82;4.22;;;7.30;81.00;;;;;;5016180;28;20113;-49
2021/01/23 12:17:44;;;;;;;6.75;4.07;;;7.30;81.00;;;;;;5016235;28;20478;-49
2021/01/23 12:20:10;;;;;;;7.38;4.30;;;7.30;81.20;;;;;;5016196;28;20041;-49
2021/01/23 12:22:40;;;;;;;3.88;3.15;;;7.30;81.00;;;;;;5031995;28;20030;-49
2021/01/23 12:25:08;;;;;;;6.05;3.60;;;7.30;81.00;;;;;;5035565;28;20033;-49
2021/01/23 12:27:35;;;;;;;5.35;3.55;;;7.30;80.80;;;;;;5035608;28;20077;-49
2021/01/23 12:30:03;;;;;;;6.60;4.03;;;7.30;80.80;;;;;;5018182;28;20052;-49
2021/01/23 12:32:29;;;;;;;6.25;3.83;;;7.30;80.90;;;;;;5028943;28;20044;-49
2021/01/23 12:34:54;;;;;;;3.17;2.72;;;7.30;80.90;;;;;;5016125;28;20026;-49
2021/01/23 12:37:20;;;;;;;6.30;3.72;;;7.30;80.80;;;;;;5015554;28;20120;-49
2021/01/23 12:39:45;;;;;;;5.65;3.30;;;7.30;80.80;;;;;;5015579;28;20168;-49
2021/01/23 12:42:11;;;;;;;3.45;2.25;;;7.30;80.70;;;;;;5016640;28;20038;-50
2021/01/23 12:44:37;;;;;;;3.95;2.67;;;7.30;80.70;;;;;;5032146;28;20028;-49
2021/01/23 12:47:02;;;;;;;4.47;2.80;;;7.30;80.70;;;;;;5031347;28;20038;-49
2021/01/23 12:49:28;;;;;;;4.43;3.33;;;7.30;80.80;;;;;;5015684;28;20032;-49
2021/01/23 12:51:54;;;;;;;5.10;2.65;;;7.30;80.70;;;;;;5015623;28;20028;-49
2021/01/23 12:54:19;;;;;;;6.03;3.65;;;7.30;80.70;;;;;;5016253;28;20482;-48
2021/01/23 12:56:45;;;;;;;5.05;2.80;;;7.30;80.80;;;;;;5015348;28;20030;-48
2021/01/23 12:59:11;;;;;;;5.97;3.92;;;7.30;80.60;;;;;;5015486;28;20025;-49
2021/01/23 13:01:41;;;;;;;4.55;3.58;;;7.30;80.60;;;;;;5025430;28;20048;-49
2021/01/23 13:04:07;;;;;;;5.22;3.67;;;7.20;80.40;;;;;;5030927;28;20029;-49